CDT,Max TemperatureF,Mean TemperatureF,Min TemperatureF,Max Dew PointF,MeanDew PointF,Min DewpointF,Max Humidity, Mean Humidity, Min Humidity, Max Sea Level PressureIn, Mean Sea Level PressureIn, Min Sea Level PressureIn, Max VisibilityMiles, Mean VisibilityMiles, Min VisibilityMiles, Max Wind SpeedMPH, Mean Wind SpeedMPH, Max Gust SpeedMPH,PrecipitationIn, CloudCover, Events, WindDirDegrees
2013-9-1,88,77,65,70,64,56,100,72,43,29.93,29.86,29.80,10,8,1,16,6,25,T,1,Rain,344
2013-9-2,84,71,57,59,54,46,93,61,28,30.04,30.00,29.94,10,10,10,13,7,22,0.00,0,,349
2013-9-3,86,66,46,56,49,45,100,63,25,30.14,30.08,30.04,10,7,0,10,3,13,0.00,0,Fog,18
2013-9-4,92,72,52,58,54,49,93,61,28,30.18,30.13,30.09,10,10,10,9,2,15,0.00,0,,123
2013-9-5,92,76,59,63,59,55,93,63,32,30.21,30.16,30.14,10,10,10,12,3,14,0.00,0,,63
2013-9-6,92,75,57,62,57,54,100,65,30,30.17,30.10,30.02,10,10,10,13,4,22,0.00,0,,203
2013-9-7,98,81,64,70,63,57,78,56,34,30.02,29.96,29.88,10,10,9,16,8,25,0.03,0,,212
2013-9-8,97,84,71,71,69,67,93,66,38,29.92,29.87,29.84,10,9,6,13,6,26,T,0,Rain,188
2013-9-9,100,87,73,71,64,55,87,58,28,29.94,29.89,29.86,10,9,7,18,9,29,T,0,,217
2013-9-10,97,83,69,64,61,58,78,53,27,30.06,30.01,29.95,10,10,9,21,8,31,0.00,0,,215
2013-9-11,97,83,68,70,65,60,87,59,31,30.12,30.08,30.04,10,9,2,21,6,29,0.12,4,Rain-Thunderstorm,264
2013-9-12,84,70,56,72,61,44,100,63,26,30.16,30.11,30.05,10,8,2,16,7,23,0.48,4,Rain-Thunderstorm,343
2013-9-13,76,63,49,51,46,39,83,55,27,30.22,30.17,30.12,10,10,10,14,6,18,0.00,0,,38
2013-9-14,79,60,40,48,43,39,89,58,26,30.18,30.10,30.00,10,10,10,14,6,22,0.00,0,,151
2013-9-15,68,62,56,66,58,47,93,75,56,30.20,30.06,29.96,10,7,2,18,8,22,0.25,6,Rain,292
2013-9-16,66,60,53,56,54,51,93,78,63,30.35,30.28,30.20,10,10,7,17,8,20,0.00,7,,64
2013-9-17,66,61,55,64,59,52,100,93,86,30.27,30.15,30.06,10,5,1,14,8,17,0.03,8,Rain,135
2013-9-18,90,77,63,70,65,62,100,74,47,30.06,29.97,29.87,10,5,1,22,10,30,0.02,3,Rain,176
2013-9-19,92,79,66,68,66,63,90,66,41,29.91,29.87,29.78,10,8,2,24,11,32,0.39,4,Rain-Thunderstorm,206
2013-9-20,69,59,49,67,57,47,100,73,45,30.00,29.94,29.88,10,9,2,15,8,22,0.01,4,Rain,297
2013-9-21,72,58,44,49,46,43,93,66,38,30.05,29.99,29.95,10,10,10,13,4,18,0.00,0,,321
2013-9-22,77,60,42,51,45,41,100,67,33,30.05,29.99,29.94,10,10,2,13,5,55,0.00,0,,126
2013-9-23,77,62,47,51,48,46,93,63,33,30.02,29.96,29.90,10,10,10,18,10,25,0.00,0,,134
2013-9-24,80,66,51,63,56,47,100,73,45,29.91,29.86,29.81,10,9,5,21,9,26,0.14,4,Rain-Thunderstorm,122
2013-9-25,80,67,53,63,59,52,100,79,58,29.93,29.89,29.84,10,9,4,13,5,18,0.00,3,,81
2013-9-26,86,71,56,64,58,55,100,72,44,29.99,29.94,29.90,10,5,0,21,8,25,0.00,0,Fog,125
2013-9-27,85,71,57,64,60,56,93,68,43,30.06,30.00,29.95,10,9,4,21,10,30,0.00,1,,152
2013-9-28,73,59,45,67,60,46,100,87,73,30.09,29.96,29.91,10,6,0,20,9,25,0.22,6,Fog-Rain,219
2013-9-29,74,58,41,52,44,41,100,68,35,30.13,30.07,29.99,10,5,0,12,3,15,0.00,0,Fog,178
2013-9-30,77,61,44,59,52,42,90,70,50,29.99,29.92,29.87,10,10,9,18,7,24,0.00,0,,179